Time;durP1;ratioP1;P1;durP2;ratioP2;P2;SDS_P1;SDS_P2;PMS_P1;PMS_P2;Temp;Humidity;BMP_temperature;BMP_pressure;BME280_temperature;BME280_humidity;BME280_pressure;Samples;Min_cycle;Max_cycle;Signal;HPM_P1;HPM_P2
2023/04/22 00:00:41;;;;;;;29.97;27.43;;;9.50;68.80;;;;;;5016334;28;20295;-89
2023/04/22 00:03:07;;;;;;;28.83;26.40;;;9.50;68.70;;;;;;5016289;28;20227;-89
2023/04/22 00:05:33;;;;;;;27.77;25.40;;;9.50;68.60;;;;;;5016103;28;20181;-88
2023/04/22 00:07:58;;;;;;;29.97;27.07;;;9.50;68.40;;;;;;5033850;28;20176;-89
2023/04/22 00:10:24;;;;;;;27.87;25.93;;;9.50;68.50;;;;;;5016964;28;20173;-88
2023/04/22 00:12:49;;;;;;;17.70;14.60;;;9.40;68.90;;;;;;5033678;28;20211;-88
2023/04/22 00:15:19;;;;;;;17.20;15.60;;;9.40;68.60;;;;;;5017765;28;20177;-89
2023/04/22 00:17:44;;;;;;;29.00;27.00;;;9.40;68.50;;;;;;5016375;28;20487;-90
2023/04/22 00:20:10;;;;;;;27.90;25.73;;;9.40;68.70;;;;;;5015932;28;20222;-89
2023/04/22 00:22:36;;;;;;;28.33;26.13;;;9.30;69.00;;;;;;5015871;28;20176;-90
2023/04/22 00:25:01;;;;;;;29.47;27.40;;;9.30;69.10;;;;;;5015945;28;20200;-89
2023/04/22 00:27:27;;;;;;;28.70;26.63;;;9.30;69.00;;;;;;5015865;28;20288;-90
2023/04/22 00:29:53;;;;;;;27.30;25.00;;;9.30;69.10;;;;;;5016125;28;20204;-90
2023/04/22 00:32:21;;;;;;;15.87;14.67;;;9.30;69.00;;;;;;5016234;28;20280;-90
2023/04/22 00:34:46;;;;;;;16.43;14.93;;;9.20;69.10;;;;;;5033495;28;20173;-90
2023/04/22 00:37:12;;;;;;;30.13;27.47;;;9.20;69.00;;;;;;5033109;28;20227;-90
2023/04/22 00:39:38;;;;;;;29.63;27.20;;;9.20;69.00;;;;;;5015799;28;20318;-90
2023/04/22 00:42:05;;;;;;;29.47;27.13;;;9.20;69.00;;;;;;5015679;28;20173;-90
2023/04/22 00:44:31;;;;;;;27.90;25.87;;;9.20;69.10;;;;;;5015638;28;20628;-90
2023/04/22 00:46:58;;;;;;;29.17;26.97;;;9.10;69.30;;;;;;5015912;28;20196;-91
2023/04/22 00:49:26;;;;;;;17.03;15.73;;;9.10;69.20;;;;;;5015907;28;20172;-90
2023/04/22 00:51:52;;;;;;;16.00;14.60;;;9.00;69.60;;;;;;5015578;28;20176;-90
2023/04/22 00:54:18;;;;;;;29.03;25.90;;;9.10;69.40;;;;;;5015741;28;20177;-89
2023/04/22 00:56:44;;;;;;;29.13;26.73;;;9.10;68.90;;;;;;5016183;28;20219;-89
2023/04/22 00:59:09;;;;;;;27.63;25.43;;;9.10;69.10;;;;;;5015563;28;20176;-90
2023/04/22 01:01:36;;;;;;;27.97;25.77;;;9.00;69.30;;;;;;5016074;28;20524;-89
2023/04/22 01:04:03;;;;;;;28.43;26.23;;;9.00;69.20;;;;;;5015405;28;20177;-89
2023/04/22 01:06:31;;;;;;;20.60;19.27;;;9.00;69.30;;;;;;5015772;28;20193;-89
2023/04/22 01:08:57;;;;;;;16.50;14.97;;;9.00;69.30;;;;;;5015458;28;20180;-89
2023/04/22 01:11:23;;;;;;;16.80;15.40;;;9.00;69.20;;;;;;5018903;28;20276;-89
2023/04/22 01:13:49;;;;;;;29.33;27.10;;;9.10;68.80;;;;;;5019577;28;20639;-88
2023/04/22 01:16:15;;;;;;;30.13;28.00;;;9.10;68.70;;;;;;5019288;28;20306;-88
2023/04/22 01:18:41;;;;;;;30.63;27.90;;;9.10;68.90;;;;;;5036967;28;20200;-89
2023/04/22 01:21:06;;;;;;;30.57;27.87;;;9.00;69.10;;;;;;5036913;28;20168;-88
2023/04/22 01:23:32;;;;;;;29.03;26.97;;;9.00;69.10;;;;;;5019978;28;20180;-89
2023/04/22 01:25:58;;;;;;;17.20;15.80;;;9.00;69.00;;;;;;5019157;28;20258;-88
2023/04/22 01:28:24;;;;;;;17.10;15.70;;;8.90;69.00;;;;;;5036837;28;20176;-88
2023/04/22 01:30:51;;;;;;;31.33;28.40;;;8.90;69.20;;;;;;5018978;28;20601;-88
2023/04/22 01:33:16;;;;;;;29.97;27.33;;;8.90;69.20;;;;;;5019006;28;20673;-88
2023/04/22 01:35:42;;;;;;;30.13;27.43;;;8.90;69.30;;;;;;5018686;28;20246;-88
2023/04/22 01:38:10;;;;;;;28.63;26.73;;;8.80;69.70;;;;;;5018881;28;20192;-88
2023/04/22 01:40:37;;;;;;;29.50;26.77;;;8.70;69.80;;;;;;5018875;28;20184;-88
2023/04/22 01:43:02;;;;;;;28.63;26.33;;;8.70;69.80;;;;;;5036603;28;20176;-88
2023/04/22 01:45:28;;;;;;;18.03;15.87;;;8.70;70.00;;;;;;5018876;28;20176;-88
2023/04/22 01:47:54;;;;;;;17.97;16.23;;;8.70;70.10;;;;;;5018825;28;20196;-88
2023/04/22 01:50:21;;;;;;;30.97;28.77;;;8.60;70.40;;;;;;5036538;28;20183;-88
2023/04/22 01:52:47;;;;;;;29.93;27.20;;;8.50;70.90;;;;;;5036355;28;20707;-88
2023/04/22 01:55:13;;;;;;;29.90;27.90;;;8.30;71.50;;;;;;5018388;28;20279;-88
2023/04/22 01:57:39;;;;;;;29.77;27.70;;;8.30;71.90;;;;;;5036207;28;20203;-88
2023/04/22 02:00:05;;;;;;;29.57;27.23;;;8.30;72.10;;;;;;5018519;28;20556;-88
2023/04/22 02:02:31;;;;;;;17.97;16.40;;;8.20;72.20;;;;;;5002116;28;20195;-89
2023/04/22 02:04:56;;;;;;;17.70;16.30;;;8.20;72.20;;;;;;5018774;28;20180;-88
2023/04/22 02:07:22;;;;;;;19.53;17.20;;;8.20;72.20;;;;;;5018458;28;20625;-88
2023/04/22 02:09:49;;;;;;;30.13;27.83;;;8.20;72.30;;;;;;5018709;28;20326;-88
2023/04/22 02:12:14;;;;;;;28.30;26.20;;;8.20;72.50;;;;;;5018329;28;20230;-89
2023/04/22 02:14:40;;;;;;;29.27;27.17;;;8.20;72.70;;;;;;5018758;28;20275;-88
2023/04/22 02:17:05;;;;;;;28.53;26.43;;;8.10;72.60;;;;;;5018345;28;20295;-88
2023/04/22 02:19:31;;;;;;;29.37;27.17;;;8.10;72.60;;;;;;5018279;28;20177;-89
2023/04/22 02:21:57;;;;;;;17.03;15.57;;;8.20;72.60;;;;;;5017162;28;20183;-88
2023/04/22 02:24:22;;;;;;;17.80;15.97;;;8.10;72.80;;;;;;5018146;28;20179;-88
2023/04/22 02:26:48;;;;;;;29.30;27.10;;;8.10;72.80;;;;;;5035658;28;20258;-89
2023/04/22 02:29:15;;;;;;;28.23;25.90;;;8.10;73.00;;;;;;5017992;28;20196;-89
2023/04/22 02:31:40;;;;;;;29.20;27.17;;;8.10;73.00;;;;;;5017966;28;20191;-88
2023/04/22 02:34:06;;;;;;;27.47;25.53;;;8.00;73.20;;;;;;5035651;28;20181;-89
2023/04/22 02:36:33;;;;;;;29.37;26.67;;;8.00;73.40;;;;;;5017529;28;20217;-89
2023/04/22 02:39:05;;;;;;;28.93;26.60;;;8.00;73.60;;;;;;5018584;28;20180;-89
2023/04/22 02:41:30;;;;;;;16.27;14.77;;;8.00;73.60;;;;;;5018043;28;20631;-88
2023/04/22 02:43:56;;;;;;;15.77;14.57;;;8.00;73.60;;;;;;5017643;28;20208;-89
2023/04/22 02:46:21;;;;;;;16.77;15.03;;;8.00;73.70;;;;;;5017657;28;20234;-89
2023/04/22 02:48:48;;;;;;;29.33;26.53;;;8.00;73.70;;;;;;5017802;28;20188;-88
2023/04/22 02:51:13;;;;;;;28.53;26.43;;;8.00;73.60;;;;;;5017492;28;20196;-89
2023/04/22 02:53:39;;;;;;;29.30;26.77;;;8.00;73.80;;;;;;5035291;28;20246;-88
2023/04/22 02:56:05;;;;;;;29.27;26.87;;;7.90;73.90;;;;;;5017227;28;20215;-88
2023/04/22 02:58:31;;;;;;;27.97;26.03;;;7.90;74.00;;;;;;5017713;28;20183;-88
2023/04/22 03:00:56;;;;;;;14.93;13.77;;;7.80;74.10;;;;;;5017444;28;20173;-89
2023/04/22 03:03:22;;;;;;;16.00;14.43;;;7.80;74.30;;;;;;5017335;28;20176;-88
2023/04/22 03:05:48;;;;;;;15.07;13.83;;;7.80;74.40;;;;;;5017213;28;20176;-89
2023/04/22 03:08:13;;;;;;;27.97;24.97;;;7.80;74.50;;;;;;5017665;28;20275;-88
2023/04/22 03:10:39;;;;;;;28.30;25.77;;;7.80;74.60;;;;;;5035155;28;20196;-88
2023/04/22 03:13:04;;;;;;;28.90;26.77;;;7.80;74.70;;;;;;5017536;28;20211;-89
2023/04/22 03:15:30;;;;;;;28.03;25.87;;;7.70;74.80;;;;;;5017361;28;20191;-89
2023/04/22 03:17:55;;;;;;;28.87;26.47;;;7.70;75.00;;;;;;5017367;28;20176;-89
2023/04/22 03:20:21;;;;;;;15.23;13.33;;;7.70;75.10;;;;;;5017237;28;20662;-89
2023/04/22 03:22:47;;;;;;;14.37;13.17;;;7.70;75.30;;;;;;5017128;28;20664;-89
2023/04/22 03:25:13;;;;;;;25.70;23.57;;;7.70;75.20;;;;;;5016993;28;20181;-88
2023/04/22 03:27:38;;;;;;;28.07;25.67;;;7.60;75.50;;;;;;5017616;28;20204;-88
2023/04/22 03:30:04;;;;;;;26.67;24.80;;;7.60;75.60;;;;;;5016786;28;20172;-88
2023/04/22 03:32:30;;;;;;;27.10;25.13;;;7.70;75.70;;;;;;5016360;28;20371;-89
2023/04/22 03:34:55;;;;;;;27.60;24.87;;;7.70;75.90;;;;;;5034452;28;20259;-88
2023/04/22 03:37:21;;;;;;;28.00;25.60;;;7.70;76.00;;;;;;5016719;28;20717;-89
2023/04/22 03:39:47;;;;;;;15.37;14.03;;;7.70;76.10;;;;;;5016637;28;20169;-89
2023/04/22 03:42:13;;;;;;;15.23;13.47;;;7.60;76.30;;;;;;5016608;28;20220;-88
2023/04/22 03:44:39;;;;;;;14.13;12.73;;;7.60;76.40;;;;;;5016640;28;20172;-88
2023/04/22 03:47:04;;;;;;;14.40;13.10;;;7.70;76.20;;;;;;5034486;28;20203;-89
2023/04/22 03:49:30;;;;;;;13.67;12.47;;;7.70;76.20;;;;;;5034203;28;20260;-89
2023/04/22 03:51:56;;;;;;;14.17;12.67;;;7.70;76.20;;;;;;5034116;28;20222;-88
2023/04/22 03:54:21;;;;;;;13.83;12.53;;;7.70;76.10;;;;;;5016411;28;20176;-89
2023/04/22 03:56:47;;;;;;;13.50;12.27;;;7.80;76.10;;;;;;5016248;28;20211;-88
2023/04/22 03:59:12;;;;;;;14.37;12.87;;;7.80;76.20;;;;;;5016686;28;20179;-88
2023/04/22 04:01:38;;;;;;;24.37;22.53;;;7.70;76.20;;;;;;5016320;28;20635;-89
2023/04/22 04:04:03;;;;;;;26.53;24.20;;;7.70;76.20;;;;;;5016210;28;20204;-88
2023/04/22 04:06:29;;;;;;;26.93;24.63;;;7.90;76.10;;;;;;5016270;28;20263;-88
2023/04/22 04:08:54;;;;;;;25.63;23.60;;;7.90;76.00;;;;;;5033919;28;20169;-88
2023/04/22 04:11:20;;;;;;;26.27;24.20;;;7.90;75.90;;;;;;5016308;28;20176;-88
2023/04/22 04:13:45;;;;;;;26.10;24.13;;;8.00;75.80;;;;;;5016469;28;20180;-88
2023/04/22 04:16:11;;;;;;;15.17;13.77;;;8.00;75.80;;;;;;5033485;28;20682;-88
2023/04/22 04:18:40;;;;;;;17.70;14.27;;;8.00;75.70;;;;;;5033606;28;20169;-88
2023/04/22 04:21:06;;;;;;;23.77;21.77;;;8.20;75.50;;;;;;5015878;28;20246;-88
2023/04/22 04:23:31;;;;;;;24.70;22.67;;;8.20;75.30;;;;;;5015902;28;20169;-88
2023/04/22 04:25:59;;;;;;;25.03;22.97;;;8.30;75.30;;;;;;5015962;28;20204;-88
2023/04/22 04:28:25;;;;;;;23.63;21.83;;;8.30;75.30;;;;;;5015871;28;20183;-89
2023/04/22 04:30:52;;;;;;;24.90;22.80;;;8.30;75.30;;;;;;5033574;28;20168;-88
2023/04/22 04:33:18;;;;;;;15.97;14.50;;;8.40;75.10;;;;;;5015781;28;20315;-88
2023/04/22 04:35:43;;;;;;;16.27;14.77;;;8.50;75.10;;;;;;5015537;28;20291;-88
2023/04/22 04:38:10;;;;;;;25.57;23.57;;;8.50;75.20;;;;;;5033467;28;20172;-88
2023/04/22 04:40:36;;;;;;;27.23;24.93;;;8.60;75.00;;;;;;5015683;28;20180;-88
2023/04/22 04:43:03;;;;;;;26.53;24.23;;;8.70;74.50;;;;;;5015660;28;20173;-88
2023/04/22 04:45:28;;;;;;;26.63;24.47;;;8.80;74.20;;;;;;5014956;28;20169;-89
2023/04/22 04:47:54;;;;;;;27.73;25.03;;;9.00;73.90;;;;;;5015639;28;20623;-88
2023/04/22 04:50:20;;;;;;;22.30;16.20;;;9.10;73.60;;;;;;5015594;28;20631;-88
2023/04/22 04:52:49;;;;;;;17.63;16.23;;;9.30;73.00;;;;;;5033240;28;20207;-89
2023/04/22 04:55:15;;;;;;;26.00;23.97;;;9.40;72.60;;;;;;5015651;28;20176;-89
2023/04/22 04:57:43;;;;;;;27.47;25.20;;;9.70;71.70;;;;;;5033343;28;20643;-89
2023/04/22 05:00:09;;;;;;;28.23;25.73;;;9.80;71.20;;;;;;5015698;28;20580;-89
2023/04/22 05:02:35;;;;;;;28.40;26.20;;;9.90;70.90;;;;;;5015577;28;20232;-89
2023/04/22 05:05:00;;;;;;;27.40;25.20;;;9.90;70.80;;;;;;5015403;28;20176;-88
2023/04/22 05:07:26;;;;;;;18.70;17.03;;;10.00;70.90;;;;;;5015413;28;20208;-89
2023/04/22 05:09:52;;;;;;;18.43;16.63;;;10.00;71.10;;;;;;5015490;28;20259;-89
2023/04/22 05:12:17;;;;;;;30.83;28.27;;;10.00;71.30;;;;;;5015485;28;20184;-89
2023/04/22 05:14:43;;;;;;;29.03;26.83;;;10.10;71.30;;;;;;5015359;28;20184;-88
2023/04/22 05:17:09;;;;;;;28.60;26.43;;;10.10;71.80;;;;;;5015255;28;20299;-88
2023/04/22 05:19:34;;;;;;;30.07;27.60;;;10.00;71.20;;;;;;5015419;28;20255;-88
2023/04/22 05:22:00;;;;;;;30.53;27.87;;;10.20;70.90;;;;;;5015220;28;20647;-88
2023/04/22 05:24:25;;;;;;;20.10;18.30;;;10.30;70.50;;;;;;5015334;28;20181;-88
2023/04/22 05:26:51;;;;;;;20.13;18.53;;;10.50;70.10;;;;;;5015472;28;20207;-88
2023/04/22 05:29:17;;;;;;;28.77;26.50;;;10.60;70.00;;;;;;5015177;28;20185;-89
2023/04/22 05:31:42;;;;;;;29.23;26.83;;;10.70;69.50;;;;;;5015179;28;20180;-89
2023/04/22 05:34:08;;;;;;;28.73;26.37;;;10.70;69.50;;;;;;5015129;28;20173;-89
2023/04/22 05:36:33;;;;;;;31.47;28.40;;;10.80;69.30;;;;;;5032560;28;20208;-88
2023/04/22 05:38:59;;;;;;;29.80;27.57;;;10.80;69.60;;;;;;5033109;28;20719;-88
2023/04/22 05:41:25;;;;;;;19.90;18.00;;;10.90;69.90;;;;;;5015018;28;20173;-88
2023/04/22 05:43:51;;;;;;;19.23;17.63;;;10.90;69.70;;;;;;5033062;28;20204;-89
2023/04/22 05:46:19;;;;;;;27.57;25.23;;;11.00;69.60;;;;;;5015071;28;20207;-88
2023/04/22 05:48:45;;;;;;;29.43;26.60;;;11.10;69.10;;;;;;5015189;28;20181;-89
2023/04/22 05:51:11;;;;;;;29.50;26.73;;;11.20;69.10;;;;;;5014924;28;20215;-88
2023/04/22 05:53:36;;;;;;;29.20;26.90;;;11.30;68.50;;;;;;5015008;28;20659;-89
2023/04/22 05:56:02;;;;;;;21.30;19.40;;;11.50;68.20;;;;;;5016015;28;20721;-88
2023/04/22 05:58:27;;;;;;;20.70;18.90;;;11.50;68.60;;;;;;5018658;28;20203;-89
2023/04/22 06:00:53;;;;;;;21.17;19.47;;;11.60;67.80;;;;;;5018591;28;20260;-89
2023/04/22 06:03:18;;;;;;;29.57;27.13;;;11.70;67.60;;;;;;5018492;28;20173;-89
2023/04/22 06:05:44;;;;;;;29.63;27.23;;;11.80;67.30;;;;;;5018738;28;20176;-89
2023/04/22 06:08:10;;;;;;;33.20;30.20;;;12.00;66.00;;;;;;5018455;28;20187;-88
2023/04/22 06:10:38;;;;;;;33.23;30.67;;;12.10;66.00;;;;;;5018299;28;20180;-89
2023/04/22 06:13:04;;;;;;;21.93;20.10;;;12.20;66.20;;;;;;5036346;28;20180;-89
2023/04/22 06:15:29;;;;;;;22.33;20.60;;;12.20;65.70;;;;;;5018339;28;20177;-89
2023/04/22 06:17:55;;;;;;;31.20;28.40;;;12.30;65.20;;;;;;5018198;28;20188;-89
2023/04/22 06:20:20;;;;;;;30.47;28.07;;;12.40;65.50;;;;;;5018116;28;20185;-88
2023/04/22 06:22:46;;;;;;;30.83;28.20;;;12.50;66.00;;;;;;5018101;28;20169;-87
2023/04/22 06:25:12;;;;;;;31.63;29.07;;;12.60;64.80;;;;;;5035737;28;20279;-89
2023/04/22 06:27:37;;;;;;;22.40;20.50;;;12.70;64.70;;;;;;5035591;28;20208;-88
2023/04/22 06:30:04;;;;;;;21.90;20.07;;;12.70;64.80;;;;;;5019213;28;20177;-88
2023/04/22 06:32:30;;;;;;;29.57;27.27;;;12.90;63.40;;;;;;5018001;28;20184;-89
2023/04/22 06:34:55;;;;;;;29.53;27.20;;;12.90;63.40;;;;;;5017919;28;20177;-89
2023/04/22 06:37:21;;;;;;;29.80;27.43;;;13.00;64.20;;;;;;5035957;28;20219;-89
2023/04/22 06:39:46;;;;;;;30.37;27.53;;;13.00;64.20;;;;;;5017905;28;20173;-89
2023/04/22 06:42:12;;;;;;;23.47;21.27;;;13.10;64.00;;;;;;5017733;28;20258;-87
2023/04/22 06:44:37;;;;;;;22.87;20.50;;;13.20;64.10;;;;;;5017712;28;20299;-89
2023/04/22 06:47:03;;;;;;;31.70;29.07;;;13.30;64.60;;;;;;5017697;28;20254;-89
2023/04/22 06:49:28;;;;;;;31.10;28.27;;;13.30;62.90;;;;;;5017676;28;20613;-89
2023/04/22 06:51:54;;;;;;;31.20;28.60;;;13.40;62.50;;;;;;5017660;28;20554;-89
2023/04/22 06:54:19;;;;;;;32.40;29.70;;;13.40;62.60;;;;;;5035284;28;20268;-89
2023/04/22 06:56:45;;;;;;;22.60;20.40;;;13.40;62.60;;;;;;5017524;28;20255;-89
2023/04/22 06:59:11;;;;;;;22.33;20.43;;;13.50;62.80;;;;;;5017457;28;20280;-88
2023/04/22 07:01:36;;;;;;;32.37;29.77;;;13.60;62.60;;;;;;5017400;28;20180;-88
2023/04/22 07:04:02;;;;;;;33.17;28.27;;;13.60;61.40;;;;;;5017307;28;20180;-88
2023/04/22 07:06:27;;;;;;;31.47;28.97;;;13.50;61.60;;;;;;5017182;28;20207;-88
2023/04/22 07:08:53;;;;;;;29.23;26.93;;;13.60;62.00;;;;;;5016677;28;20657;-88
2023/04/22 07:11:20;;;;;;;23.00;21.10;;;13.60;62.20;;;;;;5017343;28;20192;-88
2023/04/22 07:13:45;;;;;;;25.53;19.90;;;13.70;62.70;;;;;;5018515;28;20687;-88
2023/04/22 07:16:11;;;;;;;23.03;20.63;;;13.80;62.70;;;;;;5017186;28;20308;-87
2023/04/22 07:18:38;;;;;;;30.87;28.27;;;13.90;61.20;;;;;;5017252;28;20221;-88
2023/04/22 07:21:03;;;;;;;30.33;27.87;;;13.80;61.50;;;;;;5017238;28;20177;-88
2023/04/22 07:23:29;;;;;;;31.10;28.53;;;13.80;61.50;;;;;;5017089;28;20184;-88
2023/04/22 07:25:54;;;;;;;23.30;20.97;;;13.90;62.00;;;;;;5034584;28;20196;-89
2023/04/22 07:28:20;;;;;;;22.30;20.50;;;14.10;62.50;;;;;;5016946;28;20268;-89
2023/04/22 07:30:46;;;;;;;22.33;19.97;;;14.10;61.10;;;;;;5016966;28;20689;-89
2023/04/22 07:33:11;;;;;;;21.90;19.97;;;14.20;62.80;;;;;;5034801;28;20192;-88
2023/04/22 07:35:37;;;;;;;22.67;20.67;;;14.20;61.30;;;;;;5016650;28;20176;-88
2023/04/22 07:38:02;;;;;;;22.10;20.03;;;14.30;63.00;;;;;;5016641;28;20181;-89
2023/04/22 07:40:28;;;;;;;20.88;19.05;;;14.50;63.60;;;;;;5016961;28;20268;-88
2023/04/22 07:42:53;;;;;;;21.45;19.67;;;14.60;61.60;;;;;;5016887;28;20268;-89
2023/04/22 07:45:19;;;;;;;22.17;19.88;;;14.70;60.50;;;;;;5034254;28;20256;-89
2023/04/22 07:47:44;;;;;;;20.30;18.60;;;14.70;61.20;;;;;;5034712;28;20197;-88
2023/04/22 07:50:10;;;;;;;22.00;20.10;;;14.80;60.80;;;;;;5017056;28;20204;-88
2023/04/22 07:52:36;;;;;;;21.15;19.17;;;14.80;60.80;;;;;;5016517;28;20292;-88
2023/04/22 07:55:02;;;;;;;21.67;18.88;;;14.80;60.80;;;;;;5016500;28;20267;-88
2023/04/22 07:57:27;;;;;;;25.83;23.52;;;15.00;61.70;;;;;;5016193;28;20216;-88
2023/04/22 07:59:53;;;;;;;27.85;25.35;;;15.10;61.20;;;;;;5016464;28;20184;-88
2023/04/22 08:02:18;;;;;;;27.90;25.73;;;15.20;60.10;;;;;;5016296;28;20195;-88
2023/04/22 08:04:44;;;;;;;26.70;24.70;;;15.30;60.70;;;;;;5017454;28;20234;-88
2023/04/22 08:07:10;;;;;;;29.73;26.88;;;15.40;60.60;;;;;;5016150;28;20200;-88
2023/04/22 08:09:35;;;;;;;21.60;19.67;;;15.50;60.60;;;;;;5033790;28;20195;-88
2023/04/22 08:12:02;;;;;;;22.70;20.38;;;15.50;60.90;;;;;;5016168;28;20203;-88
2023/04/22 08:14:27;;;;;;;29.80;27.30;;;15.50;60.30;;;;;;5016179;28;20176;-88
2023/04/22 08:16:53;;;;;;;30.20;27.70;;;15.60;60.70;;;;;;5033552;28;20635;-88
2023/04/22 08:19:19;;;;;;;29.00;26.55;;;15.70;61.10;;;;;;5032716;28;20223;-88
2023/04/22 08:21:45;;;;;;;29.42;26.98;;;15.70;60.80;;;;;;5033726;28;20184;-89
2023/04/22 08:24:11;;;;;;;22.25;20.30;;;15.80;60.10;;;;;;5016121;28;20651;-89
2023/04/22 08:26:38;;;;;;;21.02;19.23;;;15.90;60.70;;;;;;5033517;28;20188;-89
2023/04/22 08:29:04;;;;;;;22.85;20.95;;;16.00;59.30;;;;;;5016680;28;20181;-88
2023/04/22 08:31:30;;;;;;;29.23;26.88;;;16.20;60.40;;;;;;5015850;28;20191;-88
2023/04/22 08:33:55;;;;;;;28.90;26.50;;;16.20;60.80;;;;;;5034006;28;20255;-88
2023/04/22 08:36:25;;;;;;;28.30;25.88;;;16.30;59.00;;;;;;5015471;28;20223;-88
2023/04/22 08:38:51;;;;;;;27.67;25.40;;;16.50;60.30;;;;;;5015968;28;20177;-88
2023/04/22 08:41:18;;;;;;;19.48;17.88;;;16.60;58.60;;;;;;5016561;28;20168;-88
2023/04/22 08:43:44;;;;;;;20.55;18.65;;;16.70;57.80;;;;;;5015751;28;20306;-89
2023/04/22 08:46:10;;;;;;;27.63;25.42;;;16.70;57.20;;;;;;5015945;28;20201;-88
2023/04/22 08:48:36;;;;;;;26.30;24.30;;;16.70;58.00;;;;;;5033329;28;20278;-88
2023/04/22 08:51:02;;;;;;;24.42;22.33;;;17.00;58.40;;;;;;5015716;28;20638;-88
2023/04/22 08:53:28;;;;;;;24.35;21.95;;;17.20;58.50;;;;;;5015579;28;20180;-88
2023/04/22 08:55:55;;;;;;;20.25;18.40;;;17.20;57.60;;;;;;5033204;28;20262;-88
2023/04/22 08:58:21;;;;;;;20.65;18.50;;;17.50;56.40;;;;;;5015475;28;20175;-88
2023/04/22 09:00:47;;;;;;;19.75;17.90;;;17.60;57.70;;;;;;5015629;28;20177;-89
2023/04/22 09:03:14;;;;;;;20.33;18.38;;;17.70;56.20;;;;;;5033172;28;20214;-88
2023/04/22 09:05:41;;;;;;;19.70;17.67;;;17.70;55.20;;;;;;5033116;28;20586;-88
2023/04/22 09:08:08;;;;;;;19.55;17.67;;;17.90;57.10;;;;;;5015425;28;20173;-89
2023/04/22 09:10:37;;;;;;;19.60;17.98;;;18.00;58.10;;;;;;5015550;28;20176;-88
2023/04/22 09:13:05;;;;;;;19.70;17.90;;;18.00;56.60;;;;;;5016374;28;20173;-89
2023/04/22 09:15:32;;;;;;;18.63;17.13;;;18.10;58.10;;;;;;5015315;28;20729;-88
2023/04/22 09:17:57;;;;;;;19.45;17.73;;;18.10;54.20;;;;;;5015333;28;20176;-89
2023/04/22 09:20:30;;;;;;;19.05;17.42;;;18.20;55.00;;;;;;5015533;28;20176;-89
2023/04/22 09:23:00;;;;;;;20.20;18.23;;;18.30;55.30;;;;;;5033085;28;20169;-88
2023/04/22 09:25:26;;;;;;;19.63;17.60;;;18.40;55.30;;;;;;5015485;28;20172;-89
2023/04/22 09:27:54;;;;;;;20.13;18.30;;;18.50;55.10;;;;;;5033108;28;20188;-88
2023/04/22 09:30:35;;;;;;;20.35;17.88;;;18.60;52.90;;;;;;5015541;28;20181;-89
2023/04/22 09:33:03;;;;;;;27.52;25.20;;;18.80;53.80;;;;;;5019137;28;20657;-89
2023/04/22 09:35:33;;;;;;;25.95;23.42;;;18.90;54.50;;;;;;5019219;28;20185;-89
2023/04/22 09:38:01;;;;;;;27.75;25.65;;;19.00;54.80;;;;;;5018949;28;20189;-88
2023/04/22 09:40:28;;;;;;;20.35;18.50;;;19.00;53.50;;;;;;5019435;28;20176;-88
2023/04/22 09:42:55;;;;;;;19.73;18.13;;;19.20;53.80;;;;;;5036716;28;20235;-88
2023/04/22 09:45:35;;;;;;;21.73;19.20;;;19.40;55.60;;;;;;5018994;28;20173;-88
2023/04/22 09:48:15;;;;;;;28.20;25.80;;;19.50;53.00;;;;;;5036637;28;20222;-89
2023/04/22 09:50:46;;;;;;;28.50;26.30;;;19.50;53.40;;;;;;5036564;28;20255;-88
2023/04/22 09:53:16;;;;;;;28.15;26.15;;;19.50;52.60;;;;;;5036481;28;20169;-88
2023/04/22 09:55:47;;;;;;;21.70;19.42;;;19.70;54.70;;;;;;5036420;28;20169;-88
2023/04/22 09:58:14;;;;;;;21.05;19.17;;;19.80;52.70;;;;;;5018921;28;20728;-91
2023/04/22 10:00:47;;;;;;;20.52;18.50;;;19.90;54.60;;;;;;5018680;28;20318;-87
2023/04/22 10:03:13;;;;;;;19.63;17.85;;;20.10;53.90;;;;;;5018651;28;20192;-87
2023/04/22 10:05:40;;;;;;;18.63;17.20;;;20.20;52.00;;;;;;5018672;28;20200;-87
2023/04/22 10:08:07;;;;;;;21.10;18.60;;;20.30;52.70;;;;;;5037372;28;20610;-88
2023/04/22 10:10:33;;;;;;;19.60;17.88;;;20.40;51.80;;;;;;5018648;28;20172;-88
2023/04/22 10:13:01;;;;;;;19.73;17.80;;;20.30;51.10;;;;;;5018594;28;20169;-88
2023/04/22 10:15:31;;;;;;;18.85;17.35;;;20.20;50.60;;;;;;5036152;28;20176;-88
2023/04/22 10:17:58;;;;;;;20.27;18.13;;;20.00;52.20;;;;;;5036013;28;20176;-88
2023/04/22 10:20:27;;;;;;;18.98;17.55;;;19.80;53.00;;;;;;5018147;28;20176;-89
2023/04/22 10:22:55;;;;;;;19.35;17.60;;;19.80;52.60;;;;;;5035911;28;20260;-88
2023/04/22 10:25:22;;;;;;;19.85;18.20;;;19.90;51.90;;;;;;5018170;28;20264;-89
2023/04/22 10:28:05;;;;;;;19.17;17.40;;;20.20;52.40;;;;;;5018104;28;20209;-89
2023/04/22 10:30:32;;;;;;;19.92;18.00;;;20.50;49.00;;;;;;5036199;28;20260;-89
2023/04/22 10:33:20;;;;;;;18.08;16.23;;;20.60;51.60;;;;;;5018095;28;20287;-88
2023/04/22 10:36:08;;;;;;;24.27;21.90;;;20.80;51.50;;;;;;5018250;28;20264;-88
2023/04/22 10:38:38;;;;;;;24.15;21.95;;;20.80;48.90;;;;;;5035883;28;20180;-88
2023/04/22 10:41:04;;;;;;;24.23;22.00;;;20.70;49.40;;;;;;5017933;28;20164;-88
2023/04/22 10:43:46;;;;;;;17.38;15.77;;;20.80;49.80;;;;;;5016680;28;20181;-88
2023/04/22 10:46:34;;;;;;;18.00;15.60;;;20.90;49.10;;;;;;5017709;28;20228;-88
2023/04/22 10:49:06;;;;;;;28.25;25.33;;;21.10;48.90;;;;;;5017992;28;20176;-88
2023/04/22 10:51:42;;;;;;;24.60;22.58;;;21.20;49.50;;;;;;5017695;28;20169;-86
2023/04/22 10:54:27;;;;;;;24.80;22.90;;;21.40;48.00;;;;;;5017627;28;20204;-86
2023/04/22 10:57:10;;;;;;;24.25;22.35;;;21.50;48.80;;;;;;5017272;28;20775;-86
2023/04/22 10:59:52;;;;;;;17.30;15.93;;;21.60;47.80;;;;;;5017524;28;20176;-86
2023/04/22 11:02:19;;;;;;;17.77;16.25;;;21.70;48.60;;;;;;5035108;28;20681;-86
2023/04/22 11:04:45;;;;;;;17.83;16.13;;;21.70;45.40;;;;;;5017388;28;20200;-87
2023/04/22 11:07:21;;;;;;;17.80;15.95;;;21.80;46.80;;;;;;5035073;28;20639;-86
2023/04/22 11:09:50;;;;;;;18.90;15.43;;;21.80;47.00;;;;;;5017294;28;20658;-86
2023/04/22 11:12:34;;;;;;;18.40;15.63;;;21.80;45.90;;;;;;5034965;28;20181;-86
2023/04/22 11:15:21;;;;;;;20.25;17.08;;;21.80;46.80;;;;;;5017188;28;20235;-86
2023/04/22 11:17:51;;;;;;;16.92;15.13;;;22.00;46.00;;;;;;5034626;28;20568;-87
2023/04/22 11:20:17;;;;;;;21.02;17.52;;;22.00;46.70;;;;;;5017340;28;20264;-86
2023/04/22 11:22:51;;;;;;;17.02;15.70;;;22.00;46.50;;;;;;5034983;28;20196;-87
2023/04/22 11:25:17;;;;;;;17.40;15.90;;;21.80;46.20;;;;;;5016999;28;20161;-87
2023/04/22 11:27:43;;;;;;;18.63;16.75;;;21.60;48.70;;;;;;5017297;28;20228;-87
2023/04/22 11:30:15;;;;;;;18.27;16.60;;;21.70;47.30;;;;;;5034694;28;20462;-86
2023/04/22 11:32:45;;;;;;;26.00;17.52;;;21.80;48.20;;;;;;5016902;28;20267;-86
2023/04/22 11:35:13;;;;;;;18.40;16.70;;;21.90;49.40;;;;;;5016795;28;20161;-87
2023/04/22 11:37:56;;;;;;;24.92;23.00;;;22.10;49.50;;;;;;5016985;28;20580;-86
2023/04/22 11:40:35;;;;;;;26.00;23.80;;;22.20;46.80;;;;;;5034832;28;20159;-87
2023/04/22 11:43:02;;;;;;;25.42;23.35;;;22.20;47.50;;;;;;5016547;28;20322;-87
2023/04/22 11:45:29;;;;;;;18.90;17.17;;;22.40;48.60;;;;;;5034220;28;20188;-86
2023/04/22 11:47:55;;;;;;;19.52;17.77;;;22.70;44.30;;;;;;5016519;28;20193;-87
2023/04/22 11:50:26;;;;;;;26.00;24.00;;;22.80;46.10;;;;;;5016461;28;20176;-86
2023/04/22 11:53:01;;;;;;;26.65;24.40;;;22.90;46.90;;;;;;5034135;28;20243;-86
2023/04/22 11:55:29;;;;;;;26.60;24.40;;;22.90;46.20;;;;;;5034207;28;20160;-86
2023/04/22 11:58:06;;;;;;;25.45;23.75;;;22.90;47.00;;;;;;5016099;28;20295;-86
2023/04/22 12:00:53;;;;;;;19.05;17.35;;;23.10;46.00;;;;;;5033966;28;20164;-86
2023/04/22 12:03:20;;;;;;;17.73;16.42;;;23.00;44.70;;;;;;5016272;28;20172;-86
2023/04/22 12:05:50;;;;;;;17.73;16.42;;;23.00;46.10;;;;;;5016716;28;20653;-86
2023/04/22 12:08:18;;;;;;;17.27;15.88;;;23.20;45.60;;;;;;5034088;28;20623;-86
2023/04/22 12:10:49;;;;;;;17.33;15.88;;;23.20;44.70;;;;;;5016001;28;20179;-86
2023/04/22 12:13:37;;;;;;;17.98;16.40;;;23.20;42.40;;;;;;5015887;28;20179;-86
2023/04/22 12:16:11;;;;;;;17.90;16.60;;;23.10;45.50;;;;;;5033626;28;20196;-86
2023/04/22 12:18:39;;;;;;;17.73;16.42;;;23.40;45.00;;;;;;5033679;28;20156;-86
2023/04/22 12:21:07;;;;;;;18.02;16.60;;;23.70;44.90;;;;;;5016110;28;20272;-86
2023/04/22 12:24:05;;;;;;;17.45;16.10;;;23.80;43.10;;;;;;5033515;28;20662;-86
2023/04/22 12:26:31;;;;;;;16.85;15.55;;;23.90;42.10;;;;;;5015859;28;20251;-86
2023/04/22 12:28:58;;;;;;;16.13;14.93;;;23.90;43.00;;;;;;5015825;28;20181;-87
2023/04/22 12:31:24;;;;;;;17.30;16.00;;;23.70;43.40;;;;;;5033437;28;20713;-86